createdAt,value
2022-10-31T00:00:07.683Z,0.00
2022-10-31T00:01:06.845Z,0.00
2022-10-31T00:02:08.083Z,0.00
2022-10-31T00:03:06.864Z,0.00
2022-10-31T00:04:07.847Z,0.00
2022-10-31T00:05:13.075Z,0.00
2022-10-31T00:06:06.799Z,0.00
2022-10-31T00:07:06.809Z,0.00
2022-10-31T00:08:13.038Z,0.00
2022-10-31T00:09:06.774Z,0.00
2022-10-31T00:10:06.832Z,0.00
2022-10-31T00:11:13.364Z,0.00
2022-10-31T00:12:06.926Z,0.00
2022-10-31T00:13:06.756Z,0.00
2022-10-31T00:14:06.959Z,0.00
2022-10-31T00:15:06.671Z,0.00
2022-10-31T00:16:09.005Z,0.00
2022-10-31T00:17:07.185Z,0.00
2022-10-31T00:18:06.692Z,0.00
2022-10-31T00:19:06.580Z,0.00
2022-10-31T00:20:06.658Z,0.00
2022-10-31T00:21:06.629Z,0.00
2022-10-31T00:22:07.905Z,0.00
2022-10-31T00:23:06.540Z,0.00
2022-10-31T00:24:07.519Z,0.00
2022-10-31T00:25:06.628Z,0.00
2022-10-31T00:26:06.587Z,0.00
2022-10-31T00:27:06.785Z,0.00
2022-10-31T00:28:08.903Z,0.00
2022-10-31T00:29:06.656Z,0.00
2022-10-31T00:30:07.531Z,0.00
2022-10-31T00:31:06.523Z,0.00
2022-10-31T00:32:06.831Z,0.00
2022-10-31T00:33:06.498Z,0.00
2022-10-31T00:34:07.511Z,0.00
2022-10-31T00:35:06.387Z,0.00
2022-10-31T00:36:06.470Z,0.00
2022-10-31T00:37:06.689Z,0.00
2022-10-31T00:38:07.503Z,0.00
2022-10-31T00:39:07.369Z,0.00
2022-10-31T00:40:07.327Z,0.00
2022-10-31T00:41:07.328Z,0.00
2022-10-31T00:42:06.377Z,0.00
2022-10-31T00:43:07.258Z,0.00
2022-10-31T00:44:06.580Z,0.00
2022-10-31T00:45:07.225Z,0.00
2022-10-31T00:46:06.435Z,0.00
2022-10-31T00:47:06.399Z,0.00
2022-10-31T00:48:06.273Z,0.00
2022-10-31T00:49:07.211Z,0.00
2022-10-31T00:50:07.154Z,0.00
2022-10-31T00:51:06.247Z,0.00
2022-10-31T00:52:06.214Z,0.00
2022-10-31T00:53:06.279Z,0.00
2022-10-31T00:54:06.181Z,0.00
2022-10-31T00:55:07.128Z,0.00
2022-10-31T00:56:06.168Z,0.00
2022-10-31T00:57:06.775Z,0.00
2022-10-31T00:58:07.294Z,0.00
2022-10-31T00:59:06.143Z,0.00
2022-10-31T01:00:06.387Z,0.00
2022-10-31T01:01:07.091Z,0.00
2022-10-31T01:02:07.399Z,0.00
2022-10-31T01:03:06.332Z,0.00
2022-10-31T01:04:06.266Z,0.00
2022-10-31T01:05:06.072Z,0.00
2022-10-31T01:06:06.028Z,0.00
2022-10-31T01:07:07.087Z,0.00
2022-10-31T01:08:06.215Z,0.00
2022-10-31T01:09:07.080Z,0.00
2022-10-31T01:10:05.990Z,0.00
2022-10-31T01:11:12.397Z,0.00
2022-10-31T01:12:12.432Z,0.00
2022-10-31T01:13:07.181Z,0.00
2022-10-31T01:14:06.021Z,0.00
2022-10-31T01:15:05.900Z,0.00
2022-10-31T01:16:05.908Z,0.00
2022-10-31T01:17:12.463Z,0.00
2022-10-31T01:18:05.900Z,0.00
2022-10-31T01:19:05.835Z,0.00
2022-10-31T01:20:07.011Z,0.00
2022-10-31T01:21:05.843Z,0.00
2022-10-31T01:22:05.969Z,0.00
2022-10-31T01:23:08.189Z,0.00
2022-10-31T01:24:06.863Z,0.00
2022-10-31T01:25:06.096Z,0.00
2022-10-31T01:26:05.857Z,0.00
2022-10-31T01:27:07.222Z,0.00
2022-10-31T01:28:06.102Z,0.00
2022-10-31T01:29:06.718Z,0.00
2022-10-31T01:30:05.948Z,0.00
2022-10-31T01:31:05.722Z,0.00
2022-10-31T01:32:05.734Z,0.00
2022-10-31T01:33:05.693Z,0.00
2022-10-31T01:34:05.754Z,0.00
2022-10-31T01:35:06.656Z,0.00
2022-10-31T01:36:05.652Z,0.00
2022-10-31T01:37:05.690Z,0.00
2022-10-31T01:38:06.595Z,0.00
2022-10-31T01:39:05.640Z,0.00
2022-10-31T01:40:06.852Z,0.00
2022-10-31T01:41:05.847Z,0.00
2022-10-31T01:42:06.966Z,0.00
2022-10-31T01:43:05.890Z,0.00
2022-10-31T01:44:05.549Z,0.00
2022-10-31T01:45:06.575Z,0.00
2022-10-31T01:46:05.625Z,0.00
2022-10-31T01:47:06.266Z,0.00
2022-10-31T01:48:05.550Z,0.00
2022-10-31T01:49:06.585Z,0.00
2022-10-31T01:50:06.981Z,0.00
2022-10-31T01:51:05.471Z,0.00
2022-10-31T01:52:05.871Z,0.00
2022-10-31T01:53:05.626Z,0.00
2022-10-31T01:54:05.565Z,0.00
2022-10-31T01:55:08.469Z,0.00
2022-10-31T01:56:11.931Z,0.00
2022-10-31T01:57:06.381Z,0.00
2022-10-31T01:58:07.626Z,0.00
2022-10-31T01:59:05.404Z,0.00
2022-10-31T02:00:05.562Z,0.00
2022-10-31T02:01:08.204Z,0.00
2022-10-31T02:02:05.887Z,0.00
2022-10-31T02:03:05.312Z,0.00
2022-10-31T02:04:05.334Z,0.00
2022-10-31T02:05:06.269Z,0.00
2022-10-31T02:06:07.191Z,0.00
2022-10-31T02:07:06.467Z,0.00
2022-10-31T02:08:05.286Z,0.00
2022-10-31T02:09:06.286Z,0.00
2022-10-31T02:10:06.305Z,0.00
2022-10-31T02:11:05.283Z,0.00
2022-10-31T02:12:11.658Z,0.00
2022-10-31T02:13:05.295Z,0.00
2022-10-31T02:14:05.491Z,0.00
2022-10-31T02:15:05.524Z,0.00
2022-10-31T02:16:05.116Z,0.00
2022-10-31T02:17:11.897Z,0.00
2022-10-31T02:18:05.038Z,0.00
2022-10-31T02:19:05.107Z,0.00
2022-10-31T02:20:05.669Z,0.00
2022-10-31T02:21:12.416Z,0.00
2022-10-31T02:22:11.502Z,0.00
2022-10-31T02:23:05.346Z,0.00
2022-10-31T02:24:05.196Z,0.00
2022-10-31T02:25:04.984Z,0.00
2022-10-31T02:26:04.993Z,0.00
2022-10-31T02:27:05.027Z,0.00
2022-10-31T02:28:05.948Z,0.00
2022-10-31T02:29:05.877Z,0.00
2022-10-31T02:30:05.023Z,0.00
2022-10-31T02:31:06.118Z,0.00
2022-10-31T02:32:11.277Z,0.00
2022-10-31T02:33:05.856Z,0.00
2022-10-31T02:34:04.962Z,0.00
2022-10-31T02:35:04.956Z,0.00
2022-10-31T02:36:04.995Z,0.00
2022-10-31T02:37:05.845Z,0.00
2022-10-31T02:38:05.018Z,0.00
2022-10-31T02:39:12.404Z,0.00
2022-10-31T02:40:04.891Z,0.00
2022-10-31T02:41:04.924Z,0.00
2022-10-31T02:42:04.935Z,0.00
2022-10-31T02:43:06.019Z,0.00
2022-10-31T02:44:05.685Z,0.00
2022-10-31T02:45:04.753Z,0.00
2022-10-31T02:46:05.024Z,0.00
2022-10-31T02:47:04.834Z,0.00
2022-10-31T02:48:04.988Z,0.00
2022-10-31T02:49:05.638Z,0.00
2022-10-31T02:50:04.653Z,0.00
2022-10-31T02:51:04.669Z,0.00
2022-10-31T02:52:04.766Z,0.00
2022-10-31T02:53:11.222Z,0.00
2022-10-31T02:54:04.648Z,0.00
2022-10-31T02:55:05.753Z,0.00
2022-10-31T02:56:04.591Z,0.00
2022-10-31T02:57:04.669Z,0.00
2022-10-31T02:58:04.744Z,0.00
2022-10-31T02:59:04.519Z,0.00
2022-10-31T03:00:04.713Z,0.00
2022-10-31T03:01:05.798Z,0.00
2022-10-31T03:02:05.024Z,0.00
2022-10-31T03:03:04.503Z,0.00
2022-10-31T03:04:04.609Z,0.00
2022-10-31T03:05:04.545Z,0.00
2022-10-31T03:06:04.445Z,0.00
2022-10-31T03:07:05.574Z,0.00
2022-10-31T03:08:04.472Z,0.00
2022-10-31T03:09:04.514Z,0.00
2022-10-31T03:10:04.431Z,0.00
2022-10-31T03:11:10.783Z,0.00
2022-10-31T03:12:04.462Z,0.00
2022-10-31T03:13:05.721Z,0.00
2022-10-31T03:14:04.424Z,0.00
2022-10-31T03:15:05.131Z,0.00
2022-10-31T03:16:04.633Z,0.00
2022-10-31T03:17:04.450Z,0.00
2022-10-31T03:18:04.606Z,0.00
2022-10-31T03:19:05.297Z,0.00
2022-10-31T03:20:10.593Z,0.00
2022-10-31T03:21:05.703Z,0.00
2022-10-31T03:22:04.444Z,0.00
2022-10-31T03:23:04.321Z,0.00
2022-10-31T03:24:05.280Z,0.00
2022-10-31T03:25:04.290Z,0.00
2022-10-31T03:26:04.390Z,0.00
2022-10-31T03:27:04.753Z,0.00
2022-10-31T03:28:04.744Z,0.00
2022-10-31T03:29:05.222Z,0.00
2022-10-31T03:30:04.168Z,0.00
2022-10-31T03:31:06.507Z,0.00
2022-10-31T03:32:04.292Z,0.00
2022-10-31T03:33:04.345Z,0.00
2022-10-31T03:34:04.384Z,0.00
2022-10-31T03:35:05.081Z,0.00
2022-10-31T03:36:04.045Z,0.00
2022-10-31T03:37:04.128Z,0.00
2022-10-31T03:38:05.447Z,0.00
2022-10-31T03:39:04.183Z,0.00
2022-10-31T03:40:05.066Z,0.00
2022-10-31T03:41:04.029Z,0.00
2022-10-31T03:42:05.433Z,0.00
2022-10-31T03:43:04.196Z,0.00
2022-10-31T03:44:05.221Z,0.00
2022-10-31T03:45:04.616Z,0.00
2022-10-31T03:46:05.045Z,0.00
2022-10-31T03:47:04.092Z,0.00
2022-10-31T03:48:04.075Z,0.00
2022-10-31T03:49:04.807Z,0.00
2022-10-31T03:50:03.951Z,0.00
2022-10-31T03:51:10.242Z,0.00
2022-10-31T03:52:04.485Z,0.00
2022-10-31T03:53:04.393Z,0.00
2022-10-31T03:54:03.958Z,0.00
2022-10-31T03:55:04.907Z,0.00
2022-10-31T03:56:05.125Z,0.00
2022-10-31T03:57:04.091Z,0.00
2022-10-31T03:58:04.575Z,0.00
2022-10-31T03:59:04.803Z,0.00
2022-10-31T04:00:04.092Z,0.00
2022-10-31T04:01:05.053Z,0.00
2022-10-31T04:02:05.925Z,0.00
2022-10-31T04:03:04.664Z,0.00
2022-10-31T04:04:03.823Z,0.00
2022-10-31T04:05:03.849Z,0.00
2022-10-31T04:06:04.512Z,0.00
2022-10-31T04:07:03.849Z,0.00
2022-10-31T04:08:05.715Z,0.00
2022-10-31T04:09:05.165Z,0.00
2022-10-31T04:10:03.758Z,0.00
2022-10-31T04:11:03.736Z,0.00
2022-10-31T04:12:04.451Z,0.00
2022-10-31T04:13:03.916Z,0.00
2022-10-31T04:14:05.637Z,0.00
2022-10-31T04:15:03.607Z,0.00
2022-10-31T04:16:03.648Z,0.00
2022-10-31T04:17:03.793Z,0.00
2022-10-31T04:18:03.893Z,0.00
2022-10-31T04:19:03.697Z,0.00
2022-10-31T04:20:05.469Z,0.00
2022-10-31T04:21:03.449Z,0.00
2022-10-31T04:22:03.461Z,0.00
2022-10-31T04:23:03.435Z,0.00
2022-10-31T04:24:03.730Z,0.00
2022-10-31T04:25:04.374Z,0.00
2022-10-31T04:26:03.845Z,0.00
2022-10-31T04:27:03.466Z,0.00
2022-10-31T04:28:03.941Z,0.00
2022-10-31T04:29:03.456Z,0.00
2022-10-31T04:30:03.426Z,0.00
2022-10-31T04:31:04.551Z,0.00
2022-10-31T04:32:03.373Z,0.00
2022-10-31T04:33:03.643Z,0.00
2022-10-31T04:34:03.320Z,0.00
2022-10-31T04:35:03.275Z,0.00
2022-10-31T04:36:04.555Z,0.00
2022-10-31T04:37:03.307Z,0.00
2022-10-31T04:38:04.063Z,0.00
2022-10-31T04:39:03.259Z,0.00
2022-10-31T04:40:04.545Z,0.00
2022-10-31T04:41:04.407Z,0.00
2022-10-31T04:42:04.721Z,0.00
2022-10-31T04:43:04.038Z,0.00
2022-10-31T04:44:04.457Z,0.00
2022-10-31T04:45:03.363Z,0.00
2022-10-31T04:46:03.673Z,0.00
2022-10-31T04:47:03.569Z,0.00
2022-10-31T04:48:04.303Z,0.00
2022-10-31T04:49:03.207Z,0.00
2022-10-31T04:50:03.240Z,0.00
2022-10-31T04:51:04.148Z,0.00
2022-10-31T04:52:03.638Z,0.00
2022-10-31T04:53:04.321Z,0.00
2022-10-31T04:54:03.170Z,0.00
2022-10-31T04:55:03.171Z,0.00
2022-10-31T04:56:03.403Z,0.00
2022-10-31T04:57:03.085Z,0.00
2022-10-31T04:58:05.802Z,0.00
2022-10-31T04:59:03.375Z,0.00
2022-10-31T05:00:04.081Z,0.00
2022-10-31T05:01:04.492Z,0.00
2022-10-31T05:02:03.637Z,0.00
2022-10-31T05:03:03.364Z,0.00
2022-10-31T05:04:10.440Z,0.00
2022-10-31T05:05:03.010Z,0.00
2022-10-31T05:06:03.299Z,0.00
2022-10-31T05:07:04.192Z,0.00
2022-10-31T05:08:03.268Z,0.00
2022-10-31T05:09:05.631Z,0.00
2022-10-31T05:10:02.955Z,0.00
2022-10-31T05:11:04.463Z,0.00
2022-10-31T05:12:04.031Z,0.00
2022-10-31T05:13:03.959Z,0.00
2022-10-31T05:14:02.902Z,0.00
2022-10-31T05:15:04.553Z,0.00
2022-10-31T05:16:03.053Z,0.00
2022-10-31T05:17:09.174Z,0.00
2022-10-31T05:18:03.349Z,0.00
2022-10-31T05:19:03.047Z,0.00
2022-10-31T05:20:03.062Z,0.00
2022-10-31T05:21:03.891Z,0.00
2022-10-31T05:22:02.841Z,0.00
2022-10-31T05:23:02.837Z,0.00
2022-10-31T05:24:03.865Z,0.00
2022-10-31T05:25:02.940Z,0.00
2022-10-31T05:26:10.055Z,0.00
2022-10-31T05:27:03.291Z,0.00
2022-10-31T05:28:02.961Z,0.00
2022-10-31T05:29:03.326Z,0.00
2022-10-31T05:30:03.643Z,0.00
2022-10-31T05:31:02.911Z,0.00
2022-10-31T05:32:03.691Z,0.00
2022-10-31T05:33:03.179Z,0.00
2022-10-31T05:34:02.750Z,0.00
2022-10-31T05:35:02.892Z,0.00
2022-10-31T05:36:03.988Z,0.00
2022-10-31T05:37:03.897Z,0.00
2022-10-31T05:38:03.249Z,0.00
2022-10-31T05:39:04.324Z,0.00
2022-10-31T05:40:07.054Z,0.00
2022-10-31T05:41:04.105Z,0.00
2022-10-31T05:42:02.983Z,0.00
2022-10-31T05:43:03.767Z,0.00
2022-10-31T05:44:02.822Z,0.00
2022-10-31T05:45:02.718Z,0.00
2022-10-31T05:46:02.731Z,0.00
2022-10-31T05:47:02.481Z,0.00
2022-10-31T05:48:02.743Z,0.00
2022-10-31T05:49:03.372Z,0.00
2022-10-31T05:50:03.163Z,0.00
2022-10-31T05:51:02.625Z,0.00
2022-10-31T05:52:02.394Z,0.00
2022-10-31T05:53:03.471Z,0.00
2022-10-31T05:54:02.430Z,0.00
2022-10-31T05:55:03.297Z,0.00
2022-10-31T05:56:02.341Z,0.00
2022-10-31T05:57:02.436Z,0.00
2022-10-31T05:58:02.990Z,0.00
2022-10-31T05:59:02.288Z,0.00
2022-10-31T06:00:02.422Z,0.00
2022-10-31T06:01:04.192Z,0.00
2022-10-31T06:02:02.283Z,0.00
2022-10-31T06:03:03.482Z,0.00
2022-10-31T06:04:02.366Z,0.00
2022-10-31T06:05:02.217Z,0.00
2022-10-31T06:06:02.142Z,0.00
2022-10-31T06:07:04.348Z,0.00
2022-10-31T06:08:03.017Z,0.00
2022-10-31T06:09:03.357Z,0.00
2022-10-31T06:10:02.439Z,0.00
2022-10-31T06:11:02.420Z,0.00
2022-10-31T06:12:04.012Z,5.62
2022-10-31T06:13:03.058Z,5.62
2022-10-31T06:14:02.065Z,5.62
2022-10-31T06:15:02.067Z,5.62
2022-10-31T06:16:02.203Z,5.62
2022-10-31T06:17:02.231Z,5.62
2022-10-31T06:18:03.608Z,5.62
2022-10-31T06:19:02.011Z,5.62
2022-10-31T06:20:01.999Z,5.62
2022-10-31T06:21:01.930Z,5.62
2022-10-31T06:22:02.247Z,5.62
2022-10-31T06:23:02.335Z,5.62
2022-10-31T06:24:03.877Z,5.62
2022-10-31T06:25:02.082Z,5.62
2022-10-31T06:26:03.274Z,11.25
2022-10-31T06:27:02.083Z,11.25
2022-10-31T06:28:02.004Z,11.25
2022-10-31T06:29:08.306Z,11.25
2022-10-31T06:30:08.152Z,11.25
2022-10-31T06:31:01.817Z,11.25
2022-10-31T06:32:02.842Z,11.25
2022-10-31T06:33:03.246Z,11.25
2022-10-31T06:34:01.938Z,11.25
2022-10-31T06:35:02.845Z,11.25
2022-10-31T06:36:01.756Z,11.25
2022-10-31T06:37:01.818Z,11.25
2022-10-31T06:38:08.062Z,11.25
2022-10-31T06:39:01.765Z,11.25
2022-10-31T06:40:01.707Z,11.25
2022-10-31T06:41:02.630Z,11.25
2022-10-31T06:42:01.782Z,11.25
2022-10-31T06:43:01.925Z,11.25
2022-10-31T06:44:05.009Z,11.25
2022-10-31T06:45:04.162Z,11.25
2022-10-31T06:46:03.793Z,11.25
2022-10-31T06:47:02.756Z,11.25
2022-10-31T06:48:16.563Z,11.25
2022-10-31T06:49:09.413Z,11.25
2022-10-31T06:50:01.704Z,16.88
2022-10-31T06:51:02.743Z,16.88
2022-10-31T06:52:01.808Z,16.88
2022-10-31T06:53:01.833Z,16.88
2022-10-31T06:54:02.517Z,16.88
2022-10-31T06:55:01.603Z,16.88
2022-10-31T06:56:02.495Z,16.88
2022-10-31T06:57:01.668Z,16.88
2022-10-31T06:58:03.288Z,16.88
2022-10-31T06:59:01.537Z,16.88
2022-10-31T07:00:01.564Z,16.88
2022-10-31T07:01:01.602Z,22.50
2022-10-31T07:02:02.755Z,22.50
2022-10-31T07:03:01.430Z,22.50
2022-10-31T07:04:02.546Z,22.50
2022-10-31T07:05:02.465Z,28.12
2022-10-31T07:06:02.463Z,28.12
2022-10-31T07:07:01.945Z,28.12
2022-10-31T07:08:02.802Z,28.12
2022-10-31T07:09:01.426Z,33.75
2022-10-31T07:10:02.460Z,33.75
2022-10-31T07:11:02.516Z,33.75
2022-10-31T07:12:01.394Z,33.75
2022-10-31T07:13:02.700Z,39.38
2022-10-31T07:14:01.655Z,39.38
2022-10-31T07:15:01.292Z,39.38
2022-10-31T07:16:01.207Z,39.38
2022-10-31T07:17:01.328Z,39.38
2022-10-31T07:18:02.239Z,39.38
2022-10-31T07:19:01.238Z,39.38
2022-10-31T07:20:01.512Z,39.38
2022-10-31T07:21:01.583Z,39.38
2022-10-31T07:22:01.626Z,39.38
2022-10-31T07:23:01.834Z,45.00
2022-10-31T07:24:02.111Z,45.00
2022-10-31T07:25:01.135Z,45.00
2022-10-31T07:26:01.683Z,45.00
2022-10-31T07:27:01.394Z,50.62
2022-10-31T07:28:01.952Z,50.62
2022-10-31T07:29:02.252Z,50.62
2022-10-31T07:30:02.040Z,50.62
2022-10-31T07:31:01.222Z,50.62
2022-10-31T07:32:02.040Z,50.62
2022-10-31T07:33:01.088Z,56.25
2022-10-31T07:34:02.084Z,56.25
2022-10-31T07:35:01.092Z,50.62
2022-10-31T07:36:01.445Z,50.62
2022-10-31T07:37:01.142Z,50.62
2022-10-31T07:38:01.198Z,50.62
2022-10-31T07:39:01.124Z,50.62
2022-10-31T07:40:07.305Z,50.62
2022-10-31T07:41:01.229Z,50.62
2022-10-31T07:42:01.846Z,50.62
2022-10-31T07:43:00.951Z,45.00
2022-10-31T07:44:00.889Z,45.00
2022-10-31T07:45:01.798Z,45.00
2022-10-31T07:46:00.905Z,45.00
2022-10-31T07:47:00.984Z,45.00
2022-10-31T07:48:01.105Z,45.00
2022-10-31T07:49:00.860Z,45.00
2022-10-31T07:50:03.058Z,45.00
2022-10-31T07:51:01.147Z,45.00
2022-10-31T07:52:00.972Z,39.38
2022-10-31T07:53:09.849Z,39.38
2022-10-31T07:54:00.926Z,39.38
2022-10-31T07:55:01.875Z,39.38
2022-10-31T07:56:01.998Z,39.38
2022-10-31T07:57:00.906Z,33.75
2022-10-31T07:58:02.155Z,33.75
2022-10-31T07:59:00.775Z,33.75
2022-10-31T08:00:00.688Z,33.75
2022-10-31T08:01:00.820Z,33.75
2022-10-31T08:02:01.763Z,39.38
2022-10-31T08:03:01.085Z,39.38
2022-10-31T08:04:00.710Z,39.38
2022-10-31T08:05:01.521Z,45.00
2022-10-31T08:06:00.778Z,45.00
2022-10-31T08:07:00.851Z,39.38
2022-10-31T08:08:02.167Z,39.38
2022-10-31T08:09:01.566Z,39.38
2022-10-31T08:10:00.561Z,39.38
2022-10-31T08:11:00.714Z,39.38
2022-10-31T08:12:00.678Z,39.38
2022-10-31T08:13:01.502Z,39.38
2022-10-31T08:14:00.535Z,39.38
2022-10-31T08:15:00.598Z,39.38
2022-10-31T08:16:00.528Z,45.00
2022-10-31T08:17:00.901Z,45.00
2022-10-31T08:18:01.837Z,39.38
2022-10-31T08:19:00.470Z,39.38
2022-10-31T08:20:00.481Z,39.38
2022-10-31T08:21:00.738Z,39.38
2022-10-31T08:22:00.528Z,39.38
2022-10-31T08:23:00.807Z,39.38
2022-10-31T08:24:09.767Z,33.75
2022-10-31T08:25:00.504Z,33.75
2022-10-31T08:26:00.852Z,33.75
2022-10-31T08:27:00.470Z,33.75
2022-10-31T08:28:00.799Z,33.75
2022-10-31T08:29:01.125Z,33.75
2022-10-31T08:30:06.825Z,33.75
2022-10-31T08:31:00.343Z,33.75
2022-10-31T08:32:00.345Z,33.75
2022-10-31T08:33:00.384Z,33.75
2022-10-31T08:34:00.289Z,33.75
2022-10-31T08:35:00.270Z,28.12
2022-10-31T08:36:44.548Z,28.12
2022-10-31T08:37:44.735Z,28.12
2022-10-31T08:38:44.669Z,28.12
2022-10-31T08:39:44.637Z,33.75
2022-10-31T08:40:44.653Z,33.75
2022-10-31T08:41:47.632Z,33.75
2022-10-31T08:42:50.911Z,33.75
2022-10-31T08:43:44.817Z,33.75
2022-10-31T08:44:44.936Z,33.75
2022-10-31T08:45:44.599Z,33.75
2022-10-31T08:46:45.557Z,39.38
2022-10-31T08:47:45.135Z,39.38
2022-10-31T08:48:45.261Z,45.00
2022-10-31T08:49:44.518Z,39.38
2022-10-31T08:50:44.831Z,39.38
2022-10-31T08:51:46.409Z,39.38
2022-10-31T08:53:04.099Z,39.38
2022-10-31T08:53:46.180Z,39.38
2022-10-31T08:54:45.523Z,39.38
2022-10-31T08:55:44.712Z,39.38
2022-10-31T08:56:50.772Z,39.38
2022-10-31T08:57:45.494Z,39.38
2022-10-31T08:58:44.471Z,39.38
2022-10-31T08:59:44.326Z,39.38
2022-10-31T09:00:44.674Z,39.38
2022-10-31T09:01:44.520Z,39.38
2022-10-31T09:02:50.718Z,39.38
2022-10-31T09:03:44.337Z,39.38
2022-10-31T09:04:44.277Z,39.38
2022-10-31T09:05:44.384Z,39.38
2022-10-31T09:07:07.888Z,39.38
2022-10-31T09:07:46.645Z,39.38
2022-10-31T09:08:46.323Z,39.38
2022-10-31T09:09:50.657Z,39.38
2022-10-31T09:10:44.459Z,39.38
2022-10-31T09:11:44.304Z,39.38
2022-10-31T09:12:45.280Z,39.38
2022-10-31T09:13:44.114Z,39.38
2022-10-31T09:14:45.967Z,39.38
2022-10-31T09:15:44.279Z,39.38
2022-10-31T09:16:44.258Z,39.38
2022-10-31T09:17:44.252Z,39.38
2022-10-31T09:18:50.539Z,33.75
2022-10-31T09:19:44.421Z,33.75
2022-10-31T09:20:44.132Z,33.75
2022-10-31T09:21:44.447Z,33.75
2022-10-31T09:22:44.261Z,33.75
2022-10-31T09:23:44.435Z,39.38
2022-10-31T09:24:45.118Z,39.38
2022-10-31T09:25:50.002Z,39.38
2022-10-31T09:26:45.538Z,39.38
2022-10-31T09:27:44.168Z,39.38
2022-10-31T09:28:44.152Z,45.00
2022-10-31T09:29:45.965Z,39.38
2022-10-31T09:30:43.951Z,45.00
2022-10-31T09:31:45.162Z,45.00
2022-10-31T09:32:44.934Z,45.00
2022-10-31T09:33:43.897Z,45.00
2022-10-31T09:34:47.605Z,45.00
2022-10-31T09:35:43.924Z,45.00
2022-10-31T09:36:44.128Z,45.00
2022-10-31T09:37:52.218Z,45.00
2022-10-31T09:38:43.856Z,45.00
2022-10-31T09:39:44.748Z,45.00
2022-10-31T09:40:43.814Z,45.00
2022-10-31T09:41:43.869Z,45.00
2022-10-31T09:42:43.766Z,39.38
2022-10-31T09:43:43.777Z,39.38
2022-10-31T09:44:43.832Z,45.00
2022-10-31T09:45:44.682Z,45.00
2022-10-31T09:46:43.744Z,45.00
2022-10-31T09:47:45.039Z,45.00
2022-10-31T09:48:43.763Z,45.00
2022-10-31T09:49:43.796Z,45.00
2022-10-31T09:50:43.672Z,45.00
2022-10-31T09:51:47.947Z,45.00
2022-10-31T09:52:46.203Z,39.38
2022-10-31T09:53:43.757Z,33.75
2022-10-31T09:54:43.645Z,33.75
2022-10-31T09:55:49.991Z,39.38
2022-10-31T09:56:46.014Z,39.38
2022-10-31T09:57:44.536Z,33.75
2022-10-31T09:58:43.684Z,33.75
2022-10-31T09:59:43.587Z,33.75
2022-10-31T10:00:43.735Z,39.38
2022-10-31T10:01:43.926Z,39.38
2022-10-31T10:02:49.933Z,39.38
2022-10-31T10:03:44.574Z,39.38
2022-10-31T10:04:44.487Z,39.38
2022-10-31T10:05:43.469Z,39.38
2022-10-31T10:06:44.590Z,39.38
2022-10-31T10:07:43.791Z,45.00
2022-10-31T10:08:44.413Z,45.00
2022-10-31T10:09:43.622Z,50.62
2022-10-31T10:10:43.523Z,50.62
2022-10-31T10:11:43.602Z,56.25
2022-10-31T10:12:44.591Z,50.62
2022-10-31T10:13:44.384Z,50.62
2022-10-31T10:14:43.368Z,50.62
2022-10-31T10:15:43.336Z,50.62
2022-10-31T10:16:43.406Z,50.62
2022-10-31T10:17:43.353Z,50.62
2022-10-31T10:18:44.323Z,50.62
2022-10-31T10:19:43.353Z,50.62
2022-10-31T10:20:45.631Z,45.00
2022-10-31T10:21:43.567Z,39.38
2022-10-31T10:22:43.427Z,39.38
2022-10-31T10:23:44.604Z,39.38
2022-10-31T10:24:43.465Z,39.38
2022-10-31T10:25:43.273Z,39.38
2022-10-31T10:26:43.277Z,39.38
2022-10-31T10:27:44.308Z,39.38
2022-10-31T10:28:49.516Z,39.38
2022-10-31T10:29:43.471Z,39.38
2022-10-31T10:30:43.286Z,39.38
2022-10-31T10:31:44.161Z,39.38
2022-10-31T10:32:50.958Z,39.38
2022-10-31T10:33:49.515Z,39.38
2022-10-31T10:34:44.044Z,39.38
2022-10-31T10:35:43.133Z,39.38
2022-10-31T10:36:43.205Z,39.38
2022-10-31T10:37:43.226Z,39.38
2022-10-31T10:38:43.231Z,39.38
2022-10-31T10:39:44.057Z,39.38
2022-10-31T10:40:43.118Z,45.00
2022-10-31T10:41:43.310Z,50.62
2022-10-31T10:42:45.511Z,56.25
2022-10-31T10:43:43.088Z,56.25
2022-10-31T10:44:43.192Z,56.25
2022-10-31T10:45:49.283Z,56.25
2022-10-31T10:46:43.275Z,56.25
2022-10-31T10:47:43.047Z,56.25
2022-10-31T10:48:42.990Z,56.25
2022-10-31T10:49:42.924Z,56.25
2022-10-31T10:50:42.918Z,56.25
2022-10-31T10:51:58.243Z,56.25
2022-10-31T10:52:49.203Z,56.25
2022-10-31T10:53:44.542Z,61.88
2022-10-31T10:54:42.900Z,61.88
2022-10-31T10:55:42.922Z,61.88
2022-10-31T10:56:43.150Z,56.25
2022-10-31T10:57:43.873Z,56.25
2022-10-31T10:58:42.899Z,61.88
2022-10-31T10:59:42.984Z,61.88
2022-10-31T11:00:43.212Z,61.88
2022-10-31T11:01:42.792Z,61.88
2022-10-31T11:02:46.440Z,61.88
2022-10-31T11:03:45.185Z,56.25
2022-10-31T11:04:42.785Z,56.25
2022-10-31T11:05:43.133Z,56.25
2022-10-31T11:06:43.003Z,56.25
2022-10-31T11:07:43.099Z,56.25
2022-10-31T11:08:42.833Z,56.25
2022-10-31T11:09:43.717Z,56.25
2022-10-31T11:10:42.671Z,56.25
2022-10-31T11:11:44.093Z,56.25
2022-10-31T11:12:42.677Z,56.25
2022-10-31T11:13:42.761Z,50.62
2022-10-31T11:14:49.810Z,56.25
2022-10-31T11:15:42.753Z,56.25
2022-10-31T11:16:42.589Z,56.25
2022-10-31T11:17:43.394Z,45.00
2022-10-31T11:18:48.909Z,45.00
2022-10-31T11:19:42.609Z,56.25
2022-10-31T11:20:48.784Z,50.62
2022-10-31T11:21:42.518Z,45.00
2022-10-31T11:22:42.562Z,45.00
2022-10-31T11:23:42.530Z,45.00
2022-10-31T11:24:42.490Z,45.00
2022-10-31T11:25:42.467Z,45.00
2022-10-31T11:26:49.904Z,45.00
2022-10-31T11:27:43.358Z,45.00
2022-10-31T11:28:44.998Z,45.00
2022-10-31T11:29:42.462Z,45.00
2022-10-31T11:30:43.461Z,45.00
2022-10-31T11:31:48.689Z,50.62
2022-10-31T11:32:42.404Z,50.62
2022-10-31T11:33:43.840Z,50.62
2022-10-31T11:34:43.119Z,50.62
2022-10-31T11:35:42.639Z,50.62
2022-10-31T11:36:43.476Z,50.62
2022-10-31T11:37:43.460Z,56.25
2022-10-31T11:38:42.443Z,50.62
2022-10-31T11:39:42.358Z,56.25
2022-10-31T11:40:42.343Z,61.88
2022-10-31T11:41:42.275Z,61.88
2022-10-31T11:42:48.814Z,61.88
2022-10-31T11:43:42.600Z,61.88
2022-10-31T11:44:42.277Z,61.88
2022-10-31T11:45:42.267Z,61.88
2022-10-31T11:46:42.205Z,61.88
2022-10-31T11:47:49.684Z,61.88
2022-10-31T11:48:42.595Z,61.88
2022-10-31T11:49:42.193Z,61.88
2022-10-31T11:50:42.125Z,61.88
2022-10-31T11:51:42.138Z,61.88
2022-10-31T11:52:42.409Z,61.88
2022-10-31T11:53:48.818Z,61.88
2022-10-31T11:54:42.335Z,61.88
2022-10-31T11:55:42.100Z,61.88
2022-10-31T11:56:42.435Z,61.88
2022-10-31T11:57:42.046Z,61.88
2022-10-31T11:58:42.105Z,61.88
2022-10-31T11:59:43.028Z,61.88
2022-10-31T12:00:42.069Z,61.88
2022-10-31T12:01:45.004Z,61.88
2022-10-31T12:02:42.375Z,61.88
2022-10-31T12:03:42.034Z,61.88
2022-10-31T12:04:48.693Z,61.88
2022-10-31T12:05:42.086Z,61.88
2022-10-31T12:06:44.184Z,61.88
2022-10-31T12:07:41.933Z,61.88
2022-10-31T12:08:43.039Z,61.88
2022-10-31T12:09:42.187Z,61.88
2022-10-31T12:10:48.278Z,61.88
2022-10-31T12:11:42.057Z,61.88
2022-10-31T12:12:42.223Z,61.88
2022-10-31T12:13:41.836Z,61.88
2022-10-31T12:14:42.090Z,61.88
2022-10-31T12:15:41.874Z,61.88
2022-10-31T12:16:48.423Z,61.88
2022-10-31T12:17:41.871Z,67.50
2022-10-31T12:18:49.052Z,67.50
2022-10-31T12:19:42.220Z,61.88
2022-10-31T12:20:42.124Z,67.50
2022-10-31T12:21:42.823Z,61.88
2022-10-31T12:22:48.074Z,67.50
2022-10-31T12:23:41.826Z,67.50
2022-10-31T12:24:41.789Z,67.50
2022-10-31T12:25:41.689Z,67.50
2022-10-31T12:26:41.684Z,67.50
2022-10-31T12:27:41.708Z,67.50
2022-10-31T12:28:52.587Z,67.50
2022-10-31T12:29:43.305Z,67.50
2022-10-31T12:30:41.669Z,67.50
2022-10-31T12:31:43.858Z,67.50
2022-10-31T12:32:41.660Z,67.50
2022-10-31T12:33:42.645Z,67.50
2022-10-31T12:34:46.181Z,67.50
2022-10-31T12:35:43.156Z,67.50
2022-10-31T12:36:41.573Z,73.12
2022-10-31T12:37:42.767Z,73.12
2022-10-31T12:38:42.635Z,73.12
2022-10-31T12:39:48.937Z,73.12
2022-10-31T12:40:42.427Z,73.12
2022-10-31T12:41:41.552Z,73.12
2022-10-31T12:42:42.720Z,67.50
2022-10-31T12:43:41.475Z,67.50
2022-10-31T12:44:47.980Z,67.50
2022-10-31T12:45:42.480Z,67.50
2022-10-31T12:46:41.591Z,67.50
2022-10-31T12:47:42.357Z,67.50
2022-10-31T12:48:41.444Z,73.12
2022-10-31T12:49:42.546Z,67.50
2022-10-31T12:50:41.405Z,73.12
2022-10-31T12:51:41.389Z,73.12
2022-10-31T12:52:41.416Z,73.12
2022-10-31T12:53:41.426Z,73.12
2022-10-31T12:54:49.217Z,73.12
2022-10-31T12:55:41.547Z,73.12
2022-10-31T12:56:41.420Z,73.12
2022-10-31T12:57:41.334Z,67.50
2022-10-31T12:58:41.444Z,67.50
2022-10-31T12:59:43.444Z,67.50
2022-10-31T13:00:41.358Z,67.50
2022-10-31T13:01:41.889Z,67.50
2022-10-31T13:02:41.403Z,67.50
2022-10-31T13:03:42.210Z,67.50
2022-10-31T13:04:42.310Z,73.12
2022-10-31T13:05:41.302Z,73.12